Time;durP1;ratioP1;P1;durP2;ratioP2;P2;SDS_P1;SDS_P2;PMS_P1;PMS_P2;Temp;Humidity;BMP_temperature;BMP_pressure;BME280_temperature;BME280_humidity;BME280_pressure;Samples;Min_cycle;Max_cycle;Signal;HPM_P1;HPM_P2
2023/01/24 00:00:53;;;;;;;9.27;6.27;;;1.60;97.30;;;;;;5062864;28;20468;-83
2023/01/24 00:03:19;;;;;;;7.70;7.00;;;1.60;97.30;;;;;;5050582;28;20214;-84
2023/01/24 00:05:46;;;;;;;5.57;2.93;;;1.60;97.30;;;;;;5042727;28;20190;-84
2023/01/24 00:08:13;;;;;;;6.97;5.33;;;1.60;97.30;;;;;;5043462;28;20211;-83
2023/01/24 00:10:39;;;;;;;18.17;6.37;;;1.60;97.30;;;;;;5047338;28;20489;-87
2023/01/24 00:13:05;;;;;;;11.47;4.70;;;1.60;97.30;;;;;;5085454;28;20430;-89
2023/01/24 00:15:31;;;;;;;6.47;3.87;;;1.60;97.30;;;;;;5072510;28;20430;-86
2023/01/24 00:17:58;;;;;;;6.40;5.80;;;1.60;97.30;;;;;;5072117;28;20473;-90
2023/01/24 00:20:24;;;;;;;17.80;6.30;;;1.60;97.30;;;;;;5071670;28;20437;-87
2023/01/24 00:22:49;;;;;;;12.50;3.83;;;1.60;97.30;;;;;;5072206;28;20406;-89
2023/01/24 00:25:15;;;;;;;6.23;4.83;;;1.60;97.30;;;;;;5072325;28;20474;-88
2023/01/24 00:27:40;;;;;;;19.70;4.20;;;1.60;97.30;;;;;;5072740;28;20176;-87
2023/01/24 00:30:06;;;;;;;4.70;3.07;;;1.60;97.30;;;;;;5070347;28;20199;-88
2023/01/24 00:32:32;;;;;;;9.83;5.30;;;1.60;97.30;;;;;;5064687;28;20168;-90
2023/01/24 00:34:58;;;;;;;8.33;5.50;;;1.60;97.30;;;;;;5064768;28;20432;-89
2023/01/24 00:37:24;;;;;;;6.27;5.23;;;1.60;97.30;;;;;;5060789;28;20207;-86
2023/01/24 00:39:50;;;;;;;2.93;2.73;;;1.60;97.30;;;;;;5065027;28;20279;-84
2023/01/24 00:42:15;;;;;;;14.00;4.17;;;1.60;97.30;;;;;;5054359;28;20454;-83
2023/01/24 00:44:41;;;;;;;6.77;3.93;;;1.60;97.30;;;;;;5058931;28;20614;-85
2023/01/24 00:47:06;;;;;;;7.50;4.57;;;1.60;97.30;;;;;;5052676;28;20242;-86
2023/01/24 00:49:32;;;;;;;8.43;4.43;;;1.60;97.30;;;;;;5053836;28;20183;-87
2023/01/24 00:51:57;;;;;;;5.07;4.73;;;1.60;97.30;;;;;;5059327;28;20191;-85
2023/01/24 00:54:23;;;;;;;10.43;4.97;;;1.60;97.30;;;;;;5054857;28;20203;-86
2023/01/24 00:56:48;;;;;;;6.30;5.77;;;1.60;97.30;;;;;;5054861;28;20278;-86
2023/01/24 00:59:14;;;;;;;10.43;3.87;;;1.60;97.30;;;;;;5068544;28;20306;-89
2023/01/24 01:01:39;;;;;;;11.80;5.13;;;1.60;97.30;;;;;;5076735;28;20196;-87
2023/01/24 01:04:05;;;;;;;5.07;4.67;;;1.60;97.30;;;;;;5066733;28;20439;-85
2023/01/24 01:06:31;;;;;;;8.20;3.33;;;1.60;97.30;;;;;;5050913;28;20179;-85
2023/01/24 01:08:56;;;;;;;6.77;3.80;;;1.60;97.30;;;;;;5053494;28;20172;-85
2023/01/24 01:11:29;;;;;;;4.90;4.60;;;1.60;97.30;;;;;;5058189;28;20230;-85
2023/01/24 01:14:01;;;;;;;7.97;5.43;;;1.60;97.30;;;;;;5053594;28;20183;-84
2023/01/24 01:16:37;;;;;;;8.37;7.07;;;1.60;97.30;;;;;;5047596;28;20407;-85
2023/01/24 01:19:19;;;;;;;4.83;3.97;;;1.60;97.30;;;;;;5039802;28;20415;-87
2023/01/24 01:21:49;;;;;;;2.97;2.80;;;1.60;97.30;;;;;;5052440;28;20792;-84
2023/01/24 01:24:15;;;;;;;3.30;2.80;;;1.60;97.30;;;;;;5048550;28;20512;-85
2023/01/24 01:26:40;;;;;;;8.57;7.27;;;1.60;97.30;;;;;;5046367;28;20546;-85
2023/01/24 01:29:06;;;;;;;3.40;2.40;;;1.60;97.30;;;;;;5051243;28;20176;-84
2023/01/24 01:31:31;;;;;;;6.13;3.97;;;1.60;97.30;;;;;;5048906;28;20703;-88
2023/01/24 01:33:57;;;;;;;4.93;4.63;;;1.60;97.30;;;;;;5051860;28;20184;-84
2023/01/24 01:36:22;;;;;;;21.93;5.33;;;1.60;97.30;;;;;;5051733;28;20180;-85
2023/01/24 01:38:48;;;;;;;17.70;5.43;;;1.60;97.30;;;;;;5052551;28;20294;-88
2023/01/24 01:41:14;;;;;;;8.13;4.30;;;1.60;97.30;;;;;;5050812;28;20192;-86
2023/01/24 01:44:37;;;;;;;4.73;4.43;;;1.60;97.30;;;;;;5050979;28;20643;-84
2023/01/24 01:46:28;;;;;;;7.30;5.70;;;1.60;97.30;;;;;;5052155;28;20414;-85
2023/01/24 01:48:56;;;;;;;10.10;6.57;;;1.50;97.30;;;;;;5050706;28;20411;-85
2023/01/24 01:51:44;;;;;;;10.57;3.90;;;1.60;97.30;;;;;;5050340;28;20434;-87
2023/01/24 01:54:25;;;;;;;8.77;5.50;;;1.60;97.30;;;;;;5051120;28;20461;-86
2023/01/24 01:57:00;;;;;;;8.90;6.53;;;1.60;97.30;;;;;;5039422;28;20489;-84
2023/01/24 01:59:35;;;;;;;10.83;5.43;;;1.60;97.30;;;;;;5031177;28;20411;-85
2023/01/24 02:02:02;;;;;;;18.67;4.93;;;1.60;97.30;;;;;;5030725;28;20433;-87
2023/01/24 02:04:32;;;;;;;5.60;4.43;;;1.60;97.30;;;;;;5030842;28;20693;-85
2023/01/24 02:07:16;;;;;;;4.23;2.90;;;1.60;97.30;;;;;;5031162;28;20438;-85
2023/01/24 02:09:44;;;;;;;8.50;6.27;;;1.60;97.30;;;;;;5031199;28;20415;-84
2023/01/24 02:12:23;;;;;;;7.43;3.93;;;1.60;97.30;;;;;;5031125;28;21043;-85
2023/01/24 02:17:38;;;;;;;12.23;4.87;;;1.60;97.30;;;;;;5032104;28;20823;-85
2023/01/24 02:20:25;;;;;;;11.00;5.43;;;1.60;97.30;;;;;;5031851;28;20431;-84
2023/01/24 02:23:29;;;;;;;5.27;4.97;;;1.60;97.30;;;;;;5034592;28;20398;-85
2023/01/24 02:26:15;;;;;;;9.07;3.00;;;1.50;97.30;;;;;;5001428;28;20429;-85
2023/01/24 02:28:49;;;;;;;5.67;4.53;;;1.50;97.30;;;;;;5034971;28;20449;-85
2023/01/24 02:31:14;;;;;;;8.27;5.43;;;1.50;97.30;;;;;;5034371;28;20448;-84
2023/01/24 02:33:40;;;;;;;3.87;3.00;;;1.50;97.30;;;;;;5034904;28;20713;-85
2023/01/24 02:36:13;;;;;;;2.37;2.17;;;1.50;97.30;;;;;;5051092;28;20554;-85
2023/01/24 02:38:42;;;;;;;7.03;5.23;;;1.50;97.30;;;;;;5054868;28;20294;-85
2023/01/24 02:41:08;;;;;;;6.57;5.03;;;1.50;97.30;;;;;;5054754;28;20430;-85
2023/01/24 02:43:43;;;;;;;3.93;3.73;;;1.50;97.30;;;;;;5054562;28;20473;-85
2023/01/24 02:46:09;;;;;;;3.53;3.33;;;1.50;97.30;;;;;;5047284;28;20441;-84
2023/01/24 02:48:34;;;;;;;6.27;3.70;;;1.50;97.30;;;;;;5051476;28;20437;-86
2023/01/24 02:54:04;;;;;;;4.37;3.97;;;1.50;97.30;;;;;;4993708;28;20606;-84
2023/01/24 02:59:13;;;;;;;5.30;3.83;;;1.50;97.30;;;;;;5029863;28;20199;-85
2023/01/24 03:01:39;;;;;;;6.90;4.90;;;1.50;97.30;;;;;;5053992;28;20426;-85
2023/01/24 03:04:04;;;;;;;5.47;5.17;;;1.50;97.30;;;;;;5054198;28;20669;-86
2023/01/24 03:06:30;;;;;;;18.50;4.17;;;1.50;97.30;;;;;;5055288;28;20176;-86
2023/01/24 03:08:55;;;;;;;6.27;3.30;;;1.50;97.30;;;;;;5053585;28;20183;-86
2023/01/24 03:35:53;;;;;;;3.80;3.60;;;1.50;97.30;;;;;;5052667;28;20430;-88
2023/01/24 03:41:04;;;;;;;3.60;2.30;;;1.50;97.30;;;;;;5052572;28;20648;-88
2023/01/24 03:43:29;;;;;;;4.50;3.73;;;1.50;97.30;;;;;;5051412;28;20538;-88
2023/01/24 03:45:55;;;;;;;8.93;6.13;;;1.50;97.30;;;;;;5052261;28;20184;-88
2023/01/24 03:48:26;;;;;;;8.90;4.97;;;1.40;97.30;;;;;;5056556;28;20172;-88
2023/01/24 03:53:37;;;;;;;4.50;2.87;;;1.40;97.30;;;;;;5072684;28;20820;-88
2023/01/24 03:56:03;;;;;;;3.13;3.00;;;1.40;97.30;;;;;;5071031;28;20433;-88
2023/01/24 03:58:30;;;;;;;3.57;3.23;;;1.40;97.30;;;;;;5072139;28;20195;-88
2023/01/24 04:00:57;;;;;;;4.07;3.03;;;1.40;97.30;;;;;;5071825;28;20463;-88
2023/01/24 04:03:22;;;;;;;3.23;3.00;;;1.40;97.30;;;;;;5071969;28;20433;-88
2023/01/24 04:05:49;;;;;;;7.90;5.83;;;1.40;97.30;;;;;;5076800;28;20485;-87
2023/01/24 04:08:16;;;;;;;3.33;3.13;;;1.40;97.30;;;;;;5055721;28;20185;-87
2023/01/24 04:10:41;;;;;;;2.60;2.40;;;1.40;97.30;;;;;;5050507;28;20434;-88
2023/01/24 04:13:12;;;;;;;8.03;3.93;;;1.40;97.30;;;;;;5050104;28;20458;-88
2023/01/24 04:15:38;;;;;;;3.43;3.23;;;1.40;97.30;;;;;;5063954;28;20171;-88
2023/01/24 04:18:05;;;;;;;5.10;4.03;;;1.40;97.30;;;;;;5061771;28;20619;-88
2023/01/24 04:20:33;;;;;;;5.47;2.60;;;1.40;97.30;;;;;;5050988;28;20691;-88
2023/01/24 04:23:04;;;;;;;8.30;3.00;;;1.40;97.30;;;;;;5050110;28;20463;-88
2023/01/24 04:25:29;;;;;;;8.70;3.53;;;1.40;97.30;;;;;;5050414;28;20418;-88
2023/01/24 04:27:55;;;;;;;5.00;3.90;;;1.40;97.30;;;;;;5050299;28;20422;-88
2023/01/24 04:30:20;;;;;;;3.47;3.30;;;1.40;97.30;;;;;;5063270;28;20617;-87
2023/01/24 04:32:46;;;;;;;4.20;2.53;;;1.40;97.30;;;;;;5069796;28;20802;-88
2023/01/24 04:35:19;;;;;;;2.97;2.77;;;1.40;97.30;;;;;;5059531;28;20275;-88
2023/01/24 04:37:45;;;;;;;4.90;3.00;;;1.40;97.30;;;;;;5050333;28;20290;-88
2023/01/24 04:40:12;;;;;;;3.07;2.37;;;1.40;97.30;;;;;;5056914;28;20444;-88
2023/01/24 04:42:38;;;;;;;13.07;3.73;;;1.40;97.30;;;;;;5051948;28;20442;-88
2023/01/24 04:45:04;;;;;;;3.83;3.63;;;1.40;97.30;;;;;;5049583;28;20415;-88
2023/01/24 04:47:30;;;;;;;6.50;4.43;;;1.40;97.30;;;;;;5050992;28;20180;-88
2023/01/24 04:49:55;;;;;;;3.33;2.80;;;1.40;97.30;;;;;;5049747;28;20464;-88
2023/01/24 04:52:21;;;;;;;27.07;5.10;;;1.40;97.30;;;;;;5049821;28;20621;-88
2023/01/24 04:54:46;;;;;;;4.43;3.47;;;1.40;97.30;;;;;;5049500;28;20179;-88
2023/01/24 04:57:12;;;;;;;9.10;5.07;;;1.40;97.30;;;;;;5059977;28;20202;-88
2023/01/24 04:59:38;;;;;;;3.43;3.23;;;1.40;97.30;;;;;;5051981;28;20591;-87
2023/01/24 05:02:04;;;;;;;9.00;5.87;;;1.40;97.30;;;;;;5051773;28;20234;-88
2023/01/24 05:04:30;;;;;;;7.33;4.30;;;1.40;97.30;;;;;;5069399;28;20186;-88
2023/01/24 05:06:55;;;;;;;2.13;1.97;;;1.40;97.30;;;;;;5068563;28;20476;-88
2023/01/24 05:09:21;;;;;;;5.50;4.23;;;1.40;97.30;;;;;;5068288;28;20179;-88
2023/01/24 05:11:46;;;;;;;3.40;3.00;;;1.40;97.30;;;;;;5057472;28;20237;-88
2023/01/24 05:14:12;;;;;;;3.07;2.87;;;1.40;97.30;;;;;;5053254;28;20175;-88
2023/01/24 05:16:37;;;;;;;5.20;3.27;;;1.40;97.30;;;;;;5052677;28;20198;-88
2023/01/24 05:19:04;;;;;;;3.60;3.23;;;1.40;97.30;;;;;;5052831;28;20646;-88
2023/01/24 05:21:29;;;;;;;6.53;2.73;;;1.40;97.30;;;;;;5052845;28;20666;-88
2023/01/24 05:23:55;;;;;;;4.30;2.87;;;1.40;97.30;;;;;;5052381;28;20562;-88
2023/01/24 05:26:23;;;;;;;6.20;4.80;;;1.40;97.30;;;;;;5051336;28;20874;-88
2023/01/24 05:28:49;;;;;;;6.60;3.70;;;1.40;97.30;;;;;;5051695;28;20658;-88
2023/01/24 05:31:15;;;;;;;3.57;3.17;;;1.40;97.30;;;;;;5052154;28;20440;-88
2023/01/24 05:33:41;;;;;;;2.50;2.30;;;1.40;97.30;;;;;;5070650;28;20498;-87
2023/01/24 05:36:09;;;;;;;4.20;3.80;;;1.40;97.30;;;;;;5052546;28;20570;-88
2023/01/24 05:38:35;;;;;;;3.23;3.03;;;1.40;97.30;;;;;;5052548;28;20460;-88
2023/01/24 05:41:03;;;;;;;8.37;3.67;;;1.40;97.30;;;;;;5052495;28;20509;-88
2023/01/24 05:43:29;;;;;;;6.53;4.83;;;1.40;97.30;;;;;;5052521;28;20222;-88
2023/01/24 05:46:18;;;;;;;3.87;3.00;;;1.40;97.30;;;;;;5052804;28;20445;-88
2023/01/24 05:48:45;;;;;;;2.30;2.10;;;1.40;97.30;;;;;;5051885;28;20190;-88
2023/01/24 05:51:13;;;;;;;2.60;2.33;;;1.40;97.30;;;;;;5070449;28;20680;-88
2023/01/24 05:53:40;;;;;;;1.70;1.60;;;1.40;97.30;;;;;;5071526;28;20420;-88
2023/01/24 05:56:09;;;;;;;7.47;3.70;;;1.40;97.30;;;;;;5072478;28;20408;-88
2023/01/24 05:58:37;;;;;;;7.63;4.20;;;1.40;97.30;;;;;;5059170;28;20456;-88
2023/01/24 06:01:10;;;;;;;3.73;3.53;;;1.40;97.30;;;;;;5056404;28;20538;-88
2023/01/24 06:03:41;;;;;;;11.30;4.67;;;1.40;97.30;;;;;;5056398;28;21005;-88
2023/01/24 06:06:07;;;;;;;5.27;2.93;;;1.40;97.30;;;;;;5056413;28;20944;-88
2023/01/24 06:08:34;;;;;;;4.97;3.80;;;1.40;97.30;;;;;;5056720;28;20417;-88
2023/01/24 06:11:13;;;;;;;6.00;4.00;;;1.40;97.30;;;;;;5056526;28;20433;-88
2023/01/24 06:13:40;;;;;;;14.17;4.33;;;1.40;97.30;;;;;;5074199;28;21005;-88
2023/01/24 06:16:20;;;;;;;3.07;2.90;;;1.30;97.30;;;;;;5056077;28;20420;-88
2023/01/24 06:18:47;;;;;;;3.07;2.70;;;1.40;97.30;;;;;;5055732;28;21316;-88
2023/01/24 06:21:46;;;;;;;2.83;2.63;;;1.40;97.30;;;;;;5054890;28;20479;-88
2023/01/24 06:24:23;;;;;;;6.07;3.20;;;1.30;97.30;;;;;;5062975;28;20954;-87
2023/01/24 06:26:50;;;;;;;1.60;1.50;;;1.30;97.30;;;;;;5084639;28;20793;-88
2023/01/24 06:29:16;;;;;;;3.90;3.63;;;1.30;97.30;;;;;;5067273;28;20413;-88
2023/01/24 06:31:57;;;;;;;3.90;3.40;;;1.30;97.30;;;;;;5067106;28;20532;-88
2023/01/24 06:34:51;;;;;;;6.47;4.40;;;1.30;97.30;;;;;;5065845;28;20417;-88
2023/01/24 06:37:44;;;;;;;6.30;5.43;;;1.30;97.30;;;;;;5090555;28;20489;-87
2023/01/24 06:40:12;;;;;;;9.23;3.87;;;1.30;97.30;;;;;;5067988;28;20417;-87
2023/01/24 06:42:38;;;;;;;2.70;2.10;;;1.30;97.30;;;;;;5070237;28;20432;-87
2023/01/24 06:45:05;;;;;;;6.40;3.27;;;1.30;97.30;;;;;;5069450;28;20425;-88
2023/01/24 06:47:30;;;;;;;8.40;5.30;;;1.30;97.30;;;;;;5067711;28;20421;-88
2023/01/24 06:49:56;;;;;;;6.40;5.20;;;1.40;97.30;;;;;;5086248;28;20463;-88
2023/01/24 06:52:21;;;;;;;5.20;3.03;;;1.40;97.30;;;;;;5066908;28;20222;-88
2023/01/24 06:54:47;;;;;;;8.20;3.60;;;1.40;97.30;;;;;;5059974;28;20172;-88
2023/01/24 06:57:12;;;;;;;3.40;3.23;;;1.40;97.30;;;;;;5056068;28;20669;-88
2023/01/24 06:59:38;;;;;;;5.87;3.13;;;1.40;97.30;;;;;;5056037;28;20233;-87
2023/01/24 07:02:03;;;;;;;13.53;6.70;;;1.40;97.30;;;;;;5055782;28;20191;-88
2023/01/24 07:04:29;;;;;;;3.67;2.93;;;1.40;97.30;;;;;;5055542;28;20570;-88
2023/01/24 07:06:55;;;;;;;5.30;5.00;;;1.30;97.30;;;;;;5055599;28;20648;-88
2023/01/24 07:09:21;;;;;;;6.53;3.27;;;1.30;97.30;;;;;;5055292;28;20183;-88
2023/01/24 07:11:49;;;;;;;10.33;4.03;;;1.30;97.30;;;;;;5073058;28;20250;-88
2023/01/24 07:14:15;;;;;;;5.93;2.63;;;1.30;97.30;;;;;;5055271;28;20417;-88
2023/01/24 07:16:40;;;;;;;6.10;3.10;;;1.30;97.30;;;;;;5055479;28;20791;-88
2023/01/24 07:19:12;;;;;;;4.07;3.87;;;1.30;97.30;;;;;;5055038;28;20529;-88
2023/01/24 07:21:40;;;;;;;7.20;5.30;;;1.30;97.30;;;;;;5054777;28;20812;-88
2023/01/24 07:24:13;;;;;;;6.97;3.80;;;1.30;97.30;;;;;;5073753;28;20410;-88
2023/01/24 07:26:39;;;;;;;11.53;3.13;;;1.30;97.30;;;;;;5054112;28;20430;-89
2023/01/24 07:29:05;;;;;;;5.50;3.47;;;1.30;97.30;;;;;;5056386;28;20786;-88
2023/01/24 07:31:30;;;;;;;2.27;2.07;;;1.30;97.30;;;;;;5056385;28;20451;-89
2023/01/24 07:33:56;;;;;;;4.87;3.50;;;1.30;97.30;;;;;;5074257;28;20179;-89
2023/01/24 07:36:21;;;;;;;1.60;1.50;;;1.30;97.30;;;;;;5056654;28;20206;-88
2023/01/24 07:38:47;;;;;;;12.47;3.83;;;1.30;97.30;;;;;;5057073;28;20248;-88
2023/01/24 07:41:12;;;;;;;3.63;3.10;;;1.30;97.30;;;;;;5053257;28;20224;-88
2023/01/24 07:43:38;;;;;;;3.17;2.90;;;1.20;97.30;;;;;;5054233;28;20187;-88
2023/01/24 07:46:04;;;;;;;6.00;5.67;;;1.20;97.30;;;;;;5054028;28;20179;-87
2023/01/24 07:48:29;;;;;;;8.33;3.50;;;1.20;97.30;;;;;;5050683;28;20184;-87
2023/01/24 07:50:59;;;;;;;2.30;2.10;;;1.20;97.30;;;;;;5054232;28;20203;-89
2023/01/24 07:53:25;;;;;;;1.73;1.50;;;1.20;97.30;;;;;;5055558;28;20215;-88
2023/01/24 07:55:50;;;;;;;18.63;7.77;;;1.20;97.30;;;;;;5048759;28;20464;-88
2023/01/24 07:58:16;;;;;;;3.90;3.70;;;1.20;97.30;;;;;;5055304;28;20187;-88
2023/01/24 08:00:43;;;;;;;5.53;3.17;;;1.10;97.30;;;;;;5055636;28;20199;-88
2023/01/24 08:03:09;;;;;;;8.40;4.10;;;1.10;97.30;;;;;;5054571;28;20580;-87
2023/01/24 08:05:37;;;;;;;4.73;3.03;;;1.20;97.30;;;;;;5054201;28;20413;-88
2023/01/24 08:08:02;;;;;;;3.73;3.53;;;1.10;97.30;;;;;;5055285;28;20179;-87
2023/01/24 08:10:29;;;;;;;3.83;3.40;;;1.20;97.30;;;;;;5055014;28;20803;-88
2023/01/24 08:12:55;;;;;;;7.00;4.43;;;1.20;97.30;;;;;;5055057;28;20618;-88
2023/01/24 08:15:20;;;;;;;3.43;3.23;;;1.20;97.30;;;;;;5055199;28;20418;-88
2023/01/24 08:17:46;;;;;;;4.57;4.27;;;1.20;97.30;;;;;;5054905;28;20469;-88
2023/01/24 08:20:12;;;;;;;5.03;3.30;;;1.20;97.30;;;;;;5054823;28;20183;-88
2023/01/24 08:22:39;;;;;;;9.23;2.93;;;1.20;97.30;;;;;;5054689;28;20214;-88
2023/01/24 08:25:05;;;;;;;7.70;3.97;;;1.20;97.30;;;;;;5054479;28;20175;-88
2023/01/24 08:27:31;;;;;;;2.43;2.30;;;1.20;97.30;;;;;;5054822;28;20932;-88
2023/01/24 08:29:57;;;;;;;4.30;3.53;;;1.20;97.30;;;;;;5055068;28;20417;-88
2023/01/24 08:32:22;;;;;;;5.10;2.73;;;1.20;97.30;;;;;;5055450;28;20460;-87
2023/01/24 08:34:48;;;;;;;3.70;3.53;;;1.20;97.30;;;;;;5054627;28;20183;-88
2023/01/24 08:37:14;;;;;;;4.83;4.53;;;1.20;97.30;;;;;;5073663;28;20207;-88
2023/01/24 08:39:39;;;;;;;1.73;1.63;;;1.20;97.30;;;;;;5055459;28;20265;-87
2023/01/24 08:42:04;;;;;;;5.33;3.90;;;1.20;97.30;;;;;;5054990;28;20206;-88
2023/01/24 08:44:30;;;;;;;4.53;4.10;;;1.20;97.30;;;;;;5054904;28;20175;-88
2023/01/24 08:46:55;;;;;;;3.70;3.50;;;1.20;97.30;;;;;;5055087;28;20232;-88
2023/01/24 08:49:21;;;;;;;4.63;3.60;;;1.20;97.30;;;;;;5054762;28;20557;-88
2023/01/24 08:51:47;;;;;;;9.27;4.93;;;1.30;97.30;;;;;;5054663;28;20274;-88
2023/01/24 08:54:14;;;;;;;4.90;4.60;;;1.30;97.30;;;;;;5054389;28;20167;-88
2023/01/24 08:56:39;;;;;;;2.27;2.00;;;1.30;97.30;;;;;;5054287;28;21007;-88
2023/01/24 08:59:05;;;;;;;4.77;2.87;;;1.30;97.30;;;;;;5054391;28;20553;-88
2023/01/24 09:01:31;;;;;;;4.20;3.03;;;1.30;97.30;;;;;;5056666;28;20195;-88
2023/01/24 09:03:59;;;;;;;4.17;2.90;;;1.30;97.30;;;;;;5054884;28;20175;-88
2023/01/24 09:06:25;;;;;;;3.77;2.30;;;1.30;97.30;;;;;;5054263;28;20494;-88
2023/01/24 09:08:54;;;;;;;10.30;4.67;;;1.30;97.30;;;;;;5054188;28;20512;-88
2023/01/24 09:11:20;;;;;;;3.90;3.40;;;1.30;97.30;;;;;;5080105;22;20536;-86
2023/01/24 09:13:46;;;;;;;5.23;3.63;;;1.30;97.30;;;;;;5066601;28;21051;-85
2023/01/24 09:16:11;;;;;;;4.57;3.30;;;1.30;97.30;;;;;;5057768;28;20451;-85
2023/01/24 09:18:37;;;;;;;8.77;3.03;;;1.30;97.30;;;;;;5057217;28;20264;-85
2023/01/24 09:21:03;;;;;;;3.67;3.47;;;1.30;97.30;;;;;;5057579;28;20232;-85
2023/01/24 09:23:29;;;;;;;3.13;2.67;;;1.30;97.30;;;;;;5058243;28;20183;-89
2023/01/24 09:26:01;;;;;;;4.47;4.17;;;1.30;97.30;;;;;;5049653;28;20442;-87
2023/01/24 09:28:29;;;;;;;4.10;3.33;;;1.30;97.30;;;;;;5017930;28;20524;-84
2023/01/24 09:31:01;;;;;;;13.20;5.37;;;1.30;97.30;;;;;;5017425;28;20487;-85
2023/01/24 09:33:41;;;;;;;4.07;3.87;;;1.30;97.30;;;;;;5017565;28;20419;-86
2023/01/24 09:36:10;;;;;;;2.33;2.13;;;1.30;97.30;;;;;;5017977;28;20917;-86
2023/01/24 09:38:50;;;;;;;10.03;5.27;;;1.30;97.30;;;;;;5023468;28;20462;-88
2023/01/24 09:41:40;;;;;;;1.27;1.17;;;1.40;97.30;;;;;;5036333;28;20437;-85
2023/01/24 09:44:22;;;;;;;2.53;2.33;;;1.40;97.30;;;;;;5037083;28;20896;-86
2023/01/24 09:47:11;;;;;;;3.90;2.87;;;1.40;97.30;;;;;;5036921;28;20436;-85
2023/01/24 09:49:51;;;;;;;3.73;3.53;;;1.40;97.30;;;;;;5036543;28;20411;-84
2023/01/24 09:52:39;;;;;;;6.13;3.57;;;1.40;97.30;;;;;;5036455;28;20469;-85
2023/01/24 09:55:19;;;;;;;6.97;3.60;;;1.40;97.30;;;;;;5037058;28;20462;-86
2023/01/24 09:58:11;;;;;;;3.03;2.83;;;1.40;97.30;;;;;;5036735;28;20461;-87
2023/01/24 10:00:38;;;;;;;5.03;4.30;;;1.40;97.30;;;;;;5040885;28;20426;-86
2023/01/24 10:03:22;;;;;;;8.40;3.23;;;1.40;97.30;;;;;;5036575;28;20458;-85
2023/01/24 10:05:54;;;;;;;4.33;2.80;;;1.50;97.30;;;;;;5037461;28;20424;-85
2023/01/24 10:08:38;;;;;;;4.97;4.57;;;1.50;97.30;;;;;;5054711;28;20444;-85
2023/01/24 10:11:40;;;;;;;7.77;4.07;;;1.50;97.30;;;;;;5037100;28;20777;-86
2023/01/24 10:14:28;;;;;;;5.20;4.17;;;1.50;97.30;;;;;;5037139;28;20426;-89
2023/01/24 10:17:18;;;;;;;2.63;2.43;;;1.50;97.30;;;;;;5036896;28;20504;-85
2023/01/24 10:20:10;;;;;;;3.57;3.40;;;1.50;97.30;;;;;;5036956;28;20421;-87
2023/01/24 10:23:28;;;;;;;3.20;3.00;;;1.60;97.30;;;;;;5036658;28;20464;-85
2023/01/24 10:26:19;;;;;;;2.40;2.20;;;1.60;97.30;;;;;;4972957;28;20903;-84
2023/01/24 10:28:51;;;;;;;3.13;2.97;;;1.60;97.30;;;;;;4957029;28;21086;-86
2023/01/24 10:31:27;;;;;;;3.97;3.77;;;1.60;97.30;;;;;;5011214;28;21001;-86
2023/01/24 10:33:57;;;;;;;4.60;2.70;;;1.60;97.30;;;;;;5054458;28;20410;-86
2023/01/24 10:36:48;;;;;;;3.80;3.60;;;1.60;97.30;;;;;;5036827;28;20433;-89
2023/01/24 10:39:14;;;;;;;3.67;3.47;;;1.70;97.30;;;;;;5036828;28;20437;-84
2023/01/24 10:41:39;;;;;;;3.00;2.80;;;1.70;97.30;;;;;;5054916;28;20426;-87
2023/01/24 10:44:26;;;;;;;3.03;2.83;;;1.70;97.30;;;;;;5039477;28;20192;-85
2023/01/24 10:46:54;;;;;;;4.97;3.90;;;1.70;97.30;;;;;;5039985;28;20183;-85
2023/01/24 10:49:25;;;;;;;3.43;2.63;;;1.80;97.30;;;;;;5040605;28;20407;-88
2023/01/24 10:52:11;;;;;;;8.87;4.00;;;1.80;97.30;;;;;;5058363;28;20452;-86
2023/01/24 10:54:44;;;;;;;16.43;4.93;;;1.70;97.30;;;;;;5039685;28;20429;-84
2023/01/24 10:57:19;;;;;;;3.50;3.30;;;1.80;97.30;;;;;;5040171;28;20687;-85
2023/01/24 10:59:45;;;;;;;3.77;2.97;;;1.80;97.30;;;;;;5039964;28;20431;-87
2023/01/24 11:02:24;;;;;;;3.80;2.70;;;1.80;97.30;;;;;;5039986;28;20832;-86
2023/01/24 11:05:02;;;;;;;12.87;4.27;;;1.80;97.30;;;;;;5040378;28;20410;-85
2023/01/24 11:07:40;;;;;;;5.37;5.07;;;1.80;97.30;;;;;;5058242;28;20544;-85
2023/01/24 11:10:28;;;;;;;11.73;3.60;;;1.80;97.30;;;;;;5040967;28;20406;-84
2023/01/24 11:12:59;;;;;;;8.40;4.53;;;1.80;97.30;;;;;;5039924;28;20492;-87
2023/01/24 11:15:33;;;;;;;3.90;3.47;;;1.80;97.30;;;;;;5040132;28;20441;-85
2023/01/24 11:18:10;;;;;;;3.00;2.80;;;1.80;97.30;;;;;;5039977;28;20514;-85
2023/01/24 11:20:36;;;;;;;21.30;5.10;;;1.80;97.30;;;;;;5040539;28;20464;-86
2023/01/24 11:23:14;;;;;;;2.63;2.43;;;1.80;97.30;;;;;;5039635;28;20446;-84
2023/01/24 11:26:01;;;;;;;3.57;3.37;;;1.80;97.30;;;;;;5040664;28;20409;-84
2023/01/24 11:28:35;;;;;;;3.03;2.33;;;1.80;97.30;;;;;;5039712;28;20906;-84
2023/01/24 11:31:25;;;;;;;10.33;4.87;;;1.80;97.30;;;;;;5040060;28;20720;-84
2023/01/24 11:34:43;;;;;;;26.17;5.77;;;1.80;97.30;;;;;;5040346;28;20414;-85
2023/01/24 11:37:23;;;;;;;2.80;2.60;;;1.80;97.30;;;;;;4996077;28;20425;-85
2023/01/24 11:40:08;;;;;;;11.50;6.50;;;1.80;97.30;;;;;;5033014;28;20489;-85
2023/01/24 11:42:55;;;;;;;3.47;3.30;;;1.80;97.30;;;;;;5020002;28;20438;-86
2023/01/24 11:45:48;;;;;;;11.50;3.57;;;1.70;97.30;;;;;;5020172;28;20407;-86
2023/01/24 11:48:33;;;;;;;3.83;2.83;;;1.80;97.30;;;;;;5038060;28;20438;-86
2023/01/24 11:51:25;;;;;;;1.70;1.60;;;1.80;97.30;;;;;;5038245;28;20418;-85
2023/01/24 11:54:05;;;;;;;4.80;3.63;;;1.80;97.30;;;;;;5037768;28;20476;-87
2023/01/24 11:56:53;;;;;;;7.13;3.57;;;1.80;97.30;;;;;;5019336;28;20430;-88
2023/01/24 11:59:27;;;;;;;7.30;4.00;;;1.80;97.30;;;;;;5019999;28;20423;-85
2023/01/24 12:02:15;;;;;;;4.33;4.07;;;1.80;97.30;;;;;;5019804;28;20521;-84
2023/01/24 12:05:08;;;;;;;7.40;3.00;;;1.80;97.30;;;;;;5023459;28;20422;-86
2023/01/24 12:08:11;;;;;;;30.20;4.47;;;1.90;97.30;;;;;;5035133;28;20423;-86
2023/01/24 12:11:04;;;;;;;3.20;2.30;;;1.90;97.30;;;;;;5019818;28;20501;-84
2023/01/24 12:13:55;;;;;;;8.43;5.33;;;1.90;97.30;;;;;;5019690;28;20436;-86
2023/01/24 12:16:59;;;;;;;8.57;5.23;;;2.00;97.30;;;;;;5019016;28;20419;-85
2023/01/24 12:20:01;;;;;;;14.17;4.07;;;2.00;97.30;;;;;;5018411;28;20442;-85
2023/01/24 12:22:28;;;;;;;7.30;3.70;;;1.90;97.30;;;;;;5036552;28;20959;-86
2023/01/24 12:25:02;;;;;;;4.17;3.93;;;1.90;97.30;;;;;;5018579;28;20419;-85
2023/01/24 12:27:33;;;;;;;3.83;3.63;;;1.90;97.30;;;;;;5018780;28;20641;-87
2023/01/24 12:30:07;;;;;;;7.37;5.37;;;1.80;97.30;;;;;;5019329;28;20411;-84
2023/01/24 12:32:51;;;;;;;3.30;3.07;;;1.80;97.30;;;;;;5018795;28;21094;-85
2023/01/24 12:35:29;;;;;;;12.10;3.27;;;1.80;97.30;;;;;;5028605;28;20493;-84
2023/01/24 12:38:10;;;;;;;1.63;1.53;;;1.80;97.30;;;;;;5038829;28;20468;-87
2023/01/24 12:40:45;;;;;;;3.77;3.53;;;1.80;97.30;;;;;;5038716;28;20414;-84
2023/01/24 12:43:16;;;;;;;3.13;2.10;;;1.80;97.30;;;;;;5038605;28;20449;-84
2023/01/24 12:46:01;;;;;;;10.00;7.70;;;1.80;97.30;;;;;;5038207;28;20410;-85
2023/01/24 12:48:42;;;;;;;5.43;3.23;;;1.80;97.30;;;;;;5038593;28;20434;-85
2023/01/24 12:51:26;;;;;;;38.80;4.27;;;1.90;97.30;;;;;;5038700;28;20511;-85
2023/01/24 12:54:09;;;;;;;9.53;5.97;;;1.80;97.30;;;;;;5056600;28;20995;-85
2023/01/24 12:56:47;;;;;;;3.73;3.13;;;1.80;97.30;;;;;;5038233;28;20472;-85
2023/01/24 12:59:16;;;;;;;3.60;2.60;;;1.80;97.30;;;;;;5038931;28;21178;-84
2023/01/24 13:02:01;;;;;;;9.53;3.17;;;1.80;97.30;;;;;;5038504;28;20951;-85
2023/01/24 13:04:30;;;;;;;1.87;1.80;;;1.90;97.30;;;;;;5038310;28;20418;-84
2023/01/24 13:07:02;;;;;;;4.90;3.70;;;1.90;97.30;;;;;;5038073;28;20414;-85
2023/01/24 13:09:42;;;;;;;4.03;3.13;;;1.90;97.30;;;;;;5055918;28;20943;-86
2023/01/24 13:12:17;;;;;;;2.60;2.13;;;1.90;97.30;;;;;;5055624;28;20869;-89
2023/01/24 13:14:53;;;;;;;14.60;7.70;;;1.90;97.30;;;;;;5037794;28;20417;-85
2023/01/24 13:17:31;;;;;;;1.70;1.60;;;1.80;97.30;;;;;;5038435;28;20458;-84
2023/01/24 13:20:20;;;;;;;5.60;4.10;;;1.80;97.30;;;;;;5038694;28;20450;-86
2023/01/24 13:22:49;;;;;;;4.23;3.97;;;1.80;97.30;;;;;;5038509;28;20933;-87
2023/01/24 13:25:35;;;;;;;3.20;3.00;;;1.80;97.30;;;;;;5037361;28;20811;-85
2023/01/24 13:28:35;;;;;;;8.57;4.80;;;1.80;97.30;;;;;;5038609;28;20552;-84
2023/01/24 13:31:20;;;;;;;5.30;2.70;;;1.80;97.30;;;;;;5055717;28;20399;-88
2023/01/24 13:33:49;;;;;;;3.50;2.03;;;1.80;97.30;;;;;;5055940;28;20398;-86
2023/01/24 13:36:19;;;;;;;3.03;2.80;;;1.80;97.30;;;;;;5038393;28;20418;-84
2023/01/24 13:38:45;;;;;;;4.87;4.13;;;1.80;97.30;;;;;;5037131;28;20457;-86
2023/01/24 13:41:32;;;;;;;6.10;4.10;;;1.80;97.30;;;;;;5038311;28;20495;-84
2023/01/24 13:44:26;;;;;;;3.60;3.40;;;1.80;97.30;;;;;;5037769;28;20410;-88
2023/01/24 13:47:02;;;;;;;5.57;4.20;;;1.80;97.30;;;;;;5037950;28;20406;-86
2023/01/24 13:49:28;;;;;;;3.20;3.00;;;1.80;97.30;;;;;;5036738;28;20678;-86
2023/01/24 13:51:54;;;;;;;2.60;2.40;;;1.80;97.30;;;;;;5035775;28;20898;-85
2023/01/24 13:54:40;;;;;;;4.13;3.90;;;1.80;97.30;;;;;;5036164;28;20259;-85
2023/01/24 13:57:27;;;;;;;3.37;2.90;;;1.80;97.30;;;;;;5036519;28;20748;-85
2023/01/24 14:00:16;;;;;;;5.30;3.80;;;1.80;97.30;;;;;;5035907;28;20426;-85